Time;durP1;ratioP1;P1;durP2;ratioP2;P2;SDS_P1;SDS_P2;PMS_P1;PMS_P2;Temp;Humidity;BMP_temperature;BMP_pressure;BME280_temperature;BME280_humidity;BME280_pressure;Samples;Min_cycle;Max_cycle;Signal;HPM_P1;HPM_P2
2022/11/27 00:00:57;;;;;;;4.13;2.27;;;2.00;98.00;;;;;;5031588;28;20541;-66
2022/11/27 00:03:25;;;;;;;4.27;2.83;;;2.10;98.00;;;;;;5016242;28;20458;-66
2022/11/27 00:05:56;;;;;;;7.57;3.60;;;2.00;98.00;;;;;;5035657;28;20852;-66
2022/11/27 00:08:24;;;;;;;6.33;3.37;;;2.20;98.00;;;;;;5035592;28;20462;-66
2022/11/27 00:10:51;;;;;;;3.43;2.43;;;2.20;98.00;;;;;;5035492;28;20997;-66
2022/11/27 00:13:20;;;;;;;3.70;2.20;;;2.30;98.00;;;;;;5035514;28;20505;-66
2022/11/27 00:15:47;;;;;;;4.97;2.30;;;2.40;98.00;;;;;;5035379;28;20968;-67
2022/11/27 00:18:14;;;;;;;3.80;2.70;;;2.40;98.00;;;;;;5035525;28;20450;-66
2022/11/27 00:20:41;;;;;;;7.33;2.20;;;2.40;98.00;;;;;;5035528;28;20471;-66
2022/11/27 00:23:10;;;;;;;4.70;3.00;;;2.40;98.00;;;;;;5035394;28;20462;-66
2022/11/27 00:25:37;;;;;;;2.97;2.40;;;2.20;98.00;;;;;;5035575;28;20950;-66
2022/11/27 00:28:04;;;;;;;7.27;2.10;;;2.10;98.00;;;;;;5035239;28;20463;-66
2022/11/27 00:30:32;;;;;;;4.13;1.73;;;1.90;98.00;;;;;;5034962;28;20478;-66
2022/11/27 00:32:59;;;;;;;2.93;2.33;;;1.90;98.00;;;;;;5035034;28;20541;-66
2022/11/27 00:35:26;;;;;;;7.43;3.43;;;1.90;98.00;;;;;;5017391;28;20455;-66
2022/11/27 00:37:53;;;;;;;4.23;2.83;;;1.70;98.00;;;;;;5034957;28;20457;-66
2022/11/27 00:40:22;;;;;;;5.07;3.30;;;1.60;98.00;;;;;;5034864;28;20462;-66
2022/11/27 00:42:49;;;;;;;7.20;3.20;;;1.50;98.00;;;;;;5034732;28;20879;-66
2022/11/27 00:45:17;;;;;;;4.73;3.20;;;1.80;98.00;;;;;;5001127;28;20490;-66
2022/11/27 00:47:44;;;;;;;2.60;1.97;;;2.00;98.00;;;;;;5017396;28;20462;-66
2022/11/27 00:50:11;;;;;;;3.03;2.73;;;2.10;98.00;;;;;;5034959;28;20850;-66
2022/11/27 00:52:38;;;;;;;5.67;2.70;;;2.20;98.00;;;;;;5034795;28;20457;-66
2022/11/27 00:55:06;;;;;;;5.60;3.03;;;2.30;98.00;;;;;;5034855;28;20461;-66
2022/11/27 00:57:34;;;;;;;5.20;3.17;;;2.20;98.00;;;;;;5034760;28;20467;-66
2022/11/27 01:00:01;;;;;;;4.53;2.40;;;2.10;98.00;;;;;;5034670;28;20461;-66
2022/11/27 01:02:29;;;;;;;2.90;2.40;;;2.10;98.00;;;;;;5034599;28;20451;-66
2022/11/27 01:04:57;;;;;;;7.63;3.47;;;1.90;98.00;;;;;;5017119;28;20525;-66
2022/11/27 01:07:26;;;;;;;3.17;2.30;;;1.70;98.00;;;;;;5017238;28;20462;-66
2022/11/27 01:09:53;;;;;;;4.40;2.60;;;1.70;98.00;;;;;;5034467;28;20486;-66
2022/11/27 01:12:20;;;;;;;4.57;2.70;;;1.60;98.00;;;;;;5034400;28;20917;-66
2022/11/27 01:14:48;;;;;;;3.50;2.33;;;1.50;98.00;;;;;;5033644;28;20458;-66
2022/11/27 01:17:15;;;;;;;6.10;2.30;;;1.60;98.00;;;;;;5034459;28;20457;-66
2022/11/27 01:19:42;;;;;;;3.63;2.70;;;1.80;98.00;;;;;;5034285;28;20931;-66
2022/11/27 01:22:10;;;;;;;3.20;2.23;;;1.90;98.00;;;;;;5034334;28;20524;-66
2022/11/27 01:24:37;;;;;;;3.93;2.40;;;2.00;98.00;;;;;;5034011;28;20466;-66
2022/11/27 01:27:04;;;;;;;2.60;1.90;;;1.80;98.00;;;;;;5034011;28;20454;-66
2022/11/27 01:29:31;;;;;;;5.60;2.90;;;1.70;98.00;;;;;;5016308;28;20462;-66
2022/11/27 01:32:00;;;;;;;9.07;3.73;;;1.70;98.00;;;;;;5016555;28;20458;-66
2022/11/27 01:34:27;;;;;;;5.33;2.30;;;2.10;98.00;;;;;;5034092;28;20469;-66
2022/11/27 01:36:54;;;;;;;5.77;2.83;;;2.00;98.00;;;;;;5033781;28;20454;-66
2022/11/27 01:39:22;;;;;;;6.77;2.97;;;1.80;98.00;;;;;;5033900;28;20454;-66
2022/11/27 01:41:50;;;;;;;8.50;2.80;;;1.60;98.00;;;;;;5033884;28;20477;-66
2022/11/27 01:44:53;;;;;;;3.87;2.50;;;1.50;98.00;;;;;;5033630;28;20454;-66
2022/11/27 01:47:39;;;;;;;4.50;2.43;;;1.60;98.00;;;;;;4972437;28;20464;-66
2022/11/27 01:50:12;;;;;;;3.40;2.50;;;1.70;98.00;;;;;;5028199;28;20474;-66
2022/11/27 01:52:44;;;;;;;3.53;2.63;;;1.80;98.00;;;;;;5033565;28;20497;-66
2022/11/27 01:55:17;;;;;;;3.10;1.90;;;1.70;98.00;;;;;;5033609;28;20460;-66
2022/11/27 01:57:48;;;;;;;3.80;2.50;;;1.70;98.00;;;;;;5033551;28;20463;-66
2022/11/27 02:00:18;;;;;;;6.20;2.93;;;1.80;98.00;;;;;;5033686;28;20458;-66
2022/11/27 02:02:47;;;;;;;3.03;2.23;;;1.80;98.00;;;;;;5033549;28;20470;-66
2022/11/27 02:05:17;;;;;;;5.97;2.97;;;2.00;98.00;;;;;;5033455;28;20453;-66
2022/11/27 02:07:45;;;;;;;3.70;2.57;;;1.90;98.00;;;;;;5033561;28;20450;-67
2022/11/27 02:10:12;;;;;;;2.73;2.03;;;1.90;98.00;;;;;;5033147;28;20482;-66
2022/11/27 02:12:48;;;;;;;4.63;2.67;;;1.90;98.00;;;;;;5033501;28;20459;-66
2022/11/27 02:15:20;;;;;;;2.80;2.53;;;1.90;98.00;;;;;;5033339;28;20486;-66
2022/11/27 02:18:02;;;;;;;2.63;2.27;;;1.80;98.00;;;;;;5033098;28;20516;-66
2022/11/27 02:20:40;;;;;;;14.83;2.50;;;1.80;98.00;;;;;;5033114;28;20897;-66
2022/11/27 02:23:29;;;;;;;2.20;1.47;;;2.00;98.00;;;;;;5032825;28;20987;-66
2022/11/27 02:26:16;;;;;;;3.60;2.33;;;2.10;98.00;;;;;;5033031;28;20557;-66
2022/11/27 02:28:57;;;;;;;3.33;1.40;;;2.10;98.00;;;;;;5015147;28;20462;-66
2022/11/27 02:31:34;;;;;;;5.00;2.33;;;2.20;98.00;;;;;;5033012;28;20493;-66
2022/11/27 02:34:10;;;;;;;2.13;1.73;;;2.20;98.00;;;;;;5032679;28;20458;-66
2022/11/27 02:36:40;;;;;;;3.50;2.43;;;2.10;98.00;;;;;;5033038;28;20462;-66
2022/11/27 02:39:12;;;;;;;5.00;1.73;;;2.10;98.00;;;;;;5032572;28;20461;-66
2022/11/27 02:41:46;;;;;;;5.10;2.73;;;2.10;98.00;;;;;;5032759;28;20462;-66
2022/11/27 02:44:17;;;;;;;3.20;2.77;;;2.10;98.00;;;;;;5032681;28;20454;-66
2022/11/27 02:46:46;;;;;;;2.67;2.20;;;2.00;98.00;;;;;;5032951;28;20485;-66
2022/11/27 02:49:16;;;;;;;3.20;1.60;;;1.90;98.00;;;;;;5032097;28;20545;-66
2022/11/27 02:51:51;;;;;;;3.67;2.33;;;2.00;98.00;;;;;;5032004;28;20848;-66
2022/11/27 02:54:22;;;;;;;7.50;2.40;;;2.00;98.00;;;;;;5032494;28;20524;-66
2022/11/27 02:56:51;;;;;;;7.77;3.63;;;2.00;98.00;;;;;;5032551;28;20454;-66
2022/11/27 02:59:21;;;;;;;6.80;2.50;;;2.10;98.00;;;;;;5032522;28;20959;-66
2022/11/27 03:01:53;;;;;;;3.80;2.10;;;2.10;98.00;;;;;;5032831;28;20561;-66
2022/11/27 03:04:23;;;;;;;3.13;2.03;;;1.90;98.00;;;;;;5032482;28;20537;-66
2022/11/27 03:06:55;;;;;;;3.73;2.40;;;1.80;98.00;;;;;;5032341;28;20451;-66
2022/11/27 03:09:27;;;;;;;3.10;2.03;;;1.70;98.00;;;;;;5032297;28;20513;-66
2022/11/27 03:11:55;;;;;;;3.30;2.17;;;1.60;98.00;;;;;;5032136;28;20490;-66
2022/11/27 03:14:24;;;;;;;4.17;2.53;;;1.60;98.00;;;;;;5032074;28;20470;-66
2022/11/27 03:17:01;;;;;;;5.77;2.30;;;1.50;98.00;;;;;;5031952;28;20536;-66
2022/11/27 03:19:36;;;;;;;3.10;2.30;;;1.40;98.00;;;;;;5032088;28;20461;-66
2022/11/27 03:22:04;;;;;;;4.10;2.50;;;1.50;98.00;;;;;;5031920;28;20477;-66
2022/11/27 03:24:34;;;;;;;8.43;2.60;;;1.70;98.00;;;;;;5031967;28;20462;-66
2022/11/27 03:27:02;;;;;;;3.20;2.23;;;1.70;98.00;;;;;;5032116;28;20516;-66
2022/11/27 03:29:35;;;;;;;5.17;2.67;;;1.80;98.00;;;;;;5014319;28;20815;-66
2022/11/27 03:32:04;;;;;;;2.33;1.83;;;1.80;98.00;;;;;;5031778;28;20512;-66
2022/11/27 03:34:31;;;;;;;1.90;1.73;;;1.70;98.00;;;;;;5032013;28;20466;-66
2022/11/27 03:36:59;;;;;;;8.57;3.67;;;1.70;98.00;;;;;;5031459;28;20516;-66
2022/11/27 03:39:27;;;;;;;2.43;2.30;;;1.60;98.00;;;;;;5031714;28;20466;-66
2022/11/27 03:42:04;;;;;;;3.23;2.20;;;1.50;98.00;;;;;;5031771;28;20473;-66
2022/11/27 03:44:39;;;;;;;2.40;2.20;;;1.40;98.00;;;;;;5031974;28;20461;-66
2022/11/27 03:47:15;;;;;;;3.20;2.10;;;1.40;98.00;;;;;;5031792;28;20480;-66
2022/11/27 03:49:57;;;;;;;3.00;2.27;;;1.40;98.00;;;;;;5014469;28;20477;-66
2022/11/27 03:52:32;;;;;;;2.80;2.30;;;1.30;98.00;;;;;;5031695;28;20490;-66
2022/11/27 03:55:05;;;;;;;2.00;1.80;;;1.30;98.00;;;;;;5032243;28;20458;-66
2022/11/27 03:57:35;;;;;;;4.20;2.63;;;1.30;98.00;;;;;;5031934;28;20952;-66
2022/11/27 04:00:08;;;;;;;2.73;1.53;;;1.10;98.00;;;;;;5031651;28;20520;-66
2022/11/27 04:02:41;;;;;;;2.33;2.00;;;1.00;98.00;;;;;;5031853;28;20466;-66
2022/11/27 04:05:09;;;;;;;3.23;2.50;;;1.20;98.00;;;;;;5031652;28;20455;-66
2022/11/27 04:07:36;;;;;;;1.67;1.50;;;1.20;98.00;;;;;;5031756;28;20454;-66
2022/11/27 04:10:04;;;;;;;2.83;2.17;;;1.20;98.00;;;;;;5031579;28;20454;-66
2022/11/27 04:12:31;;;;;;;2.73;2.13;;;1.30;98.00;;;;;;5031570;28;20963;-66
2022/11/27 04:14:58;;;;;;;3.20;1.60;;;1.20;98.00;;;;;;5031442;28;20466;-66
2022/11/27 04:17:26;;;;;;;3.03;2.23;;;1.10;98.00;;;;;;5031365;28;20473;-66
2022/11/27 04:19:53;;;;;;;2.90;2.33;;;1.00;98.00;;;;;;5031503;28;20496;-66
2022/11/27 04:22:21;;;;;;;4.90;2.83;;;0.90;98.00;;;;;;5031301;28;20462;-66
2022/11/27 04:24:48;;;;;;;2.37;2.17;;;1.00;98.00;;;;;;5031402;28;20457;-66
2022/11/27 04:27:16;;;;;;;1.80;1.63;;;0.90;98.00;;;;;;5031256;28;20465;-65
2022/11/27 04:29:43;;;;;;;2.60;1.60;;;0.90;98.00;;;;;;5031400;28;21008;-66
2022/11/27 04:32:10;;;;;;;3.43;2.80;;;0.90;98.00;;;;;;5031329;28;20485;-66
2022/11/27 04:34:42;;;;;;;4.20;2.20;;;0.80;98.00;;;;;;5030704;28;20464;-66
2022/11/27 04:37:10;;;;;;;3.53;2.57;;;0.70;98.00;;;;;;5030895;28;20835;-65
2022/11/27 04:39:37;;;;;;;2.23;1.77;;;0.80;98.00;;;;;;5030843;28;20456;-66
2022/11/27 04:42:04;;;;;;;4.90;2.37;;;0.90;98.00;;;;;;5030649;28;20464;-66
2022/11/27 04:44:31;;;;;;;2.30;2.10;;;1.00;98.00;;;;;;5017578;28;20862;-66
2022/11/27 04:47:00;;;;;;;4.90;3.10;;;1.00;98.00;;;;;;5011340;28;20978;-66
2022/11/27 04:49:27;;;;;;;1.77;1.67;;;0.90;98.00;;;;;;5012127;28;20463;-66
2022/11/27 04:51:55;;;;;;;2.37;2.00;;;1.00;98.00;;;;;;5015233;28;20900;-66
2022/11/27 04:54:22;;;;;;;4.63;2.53;;;1.10;98.00;;;;;;5014896;28;20881;-66
2022/11/27 04:56:50;;;;;;;2.47;1.90;;;1.10;98.00;;;;;;5014954;28;20467;-66
2022/11/27 04:59:17;;;;;;;2.73;2.60;;;1.10;98.00;;;;;;4997749;28;20473;-66
2022/11/27 05:01:44;;;;;;;1.20;1.20;;;1.20;98.00;;;;;;5014838;28;20463;-66
2022/11/27 05:04:11;;;;;;;2.37;2.07;;;1.10;98.00;;;;;;5014927;28;20481;-66
2022/11/27 05:06:38;;;;;;;2.80;1.80;;;1.00;98.00;;;;;;4997352;28;20466;-66
2022/11/27 05:09:06;;;;;;;5.23;2.03;;;0.90;98.00;;;;;;5014393;28;20462;-66
2022/11/27 05:11:34;;;;;;;1.60;1.57;;;0.90;98.00;;;;;;5014686;28;20487;-66
2022/11/27 05:14:16;;;;;;;3.23;2.30;;;0.80;98.00;;;;;;5014377;28;20463;-66
2022/11/27 05:16:46;;;;;;;2.57;2.10;;;0.70;98.00;;;;;;5014718;28;20491;-66
2022/11/27 05:19:14;;;;;;;2.73;2.50;;;0.80;98.00;;;;;;5014415;28;20486;-66
2022/11/27 05:21:42;;;;;;;6.30;2.43;;;0.80;98.00;;;;;;5014769;28;20529;-67
2022/11/27 05:24:11;;;;;;;3.37;2.20;;;0.80;98.00;;;;;;5014202;28;20470;-66
2022/11/27 05:26:40;;;;;;;1.67;1.63;;;0.70;98.00;;;;;;5014509;28;20456;-66
2022/11/27 05:29:07;;;;;;;4.47;2.43;;;0.70;98.00;;;;;;5014325;28;20455;-66
2022/11/27 05:31:38;;;;;;;2.70;2.03;;;0.60;98.00;;;;;;5014298;28;20897;-66
2022/11/27 05:34:06;;;;;;;5.80;2.47;;;0.60;98.00;;;;;;5014238;28;20455;-66
2022/11/27 05:36:34;;;;;;;3.30;2.50;;;0.70;98.00;;;;;;4996795;28;20830;-66
2022/11/27 05:39:02;;;;;;;2.47;1.90;;;0.70;98.00;;;;;;5014283;28;20470;-66
2022/11/27 05:41:31;;;;;;;2.33;2.03;;;0.60;98.00;;;;;;5014198;28;20458;-66
2022/11/27 05:43:58;;;;;;;3.77;2.10;;;0.60;98.00;;;;;;5014325;28;20463;-66
2022/11/27 05:46:25;;;;;;;4.17;2.90;;;0.60;98.00;;;;;;4996609;28;20483;-66
2022/11/27 05:48:56;;;;;;;5.83;3.23;;;0.40;98.00;;;;;;5014053;28;20506;-66
2022/11/27 05:51:23;;;;;;;2.67;2.33;;;0.30;98.00;;;;;;5013759;28;20485;-66
2022/11/27 05:53:50;;;;;;;3.17;2.00;;;0.30;98.00;;;;;;5013817;28;20466;-66
2022/11/27 05:56:18;;;;;;;3.93;2.30;;;0.40;98.00;;;;;;5013640;28;20873;-66
2022/11/27 05:58:48;;;;;;;5.37;2.67;;;0.50;98.00;;;;;;5013684;28;20933;-65
2022/11/27 06:01:17;;;;;;;6.90;2.33;;;0.60;98.00;;;;;;5013156;28;20470;-66
2022/11/27 06:03:44;;;;;;;1.67;1.60;;;0.60;98.00;;;;;;5013696;28;20459;-66
2022/11/27 06:06:13;;;;;;;1.97;1.80;;;0.70;98.00;;;;;;5013869;28;20474;-65
2022/11/27 06:08:41;;;;;;;4.33;2.00;;;0.70;98.00;;;;;;5013735;28;20976;-66
2022/11/27 06:11:10;;;;;;;2.80;1.90;;;0.50;98.00;;;;;;4996314;28;20459;-65
2022/11/27 06:13:37;;;;;;;2.40;2.23;;;0.40;98.00;;;;;;5013179;28;20471;-66
2022/11/27 06:16:08;;;;;;;3.03;2.60;;;0.30;98.00;;;;;;5013584;28;20461;-66
2022/11/27 06:18:35;;;;;;;3.20;1.80;;;0.20;98.00;;;;;;5013421;28;20968;-66
2022/11/27 06:21:06;;;;;;;2.93;2.00;;;0.20;98.00;;;;;;5013361;28;20528;-66
2022/11/27 06:23:34;;;;;;;3.53;2.67;;;0.30;98.00;;;;;;5013405;28;20494;-66
2022/11/27 06:26:11;;;;;;;2.93;2.03;;;0.20;98.00;;;;;;5013240;28;20455;-66
2022/11/27 06:28:38;;;;;;;3.97;2.40;;;0.20;98.00;;;;;;5013240;28;20953;-66
2022/11/27 06:31:08;;;;;;;1.93;1.60;;;0.20;98.00;;;;;;5013086;28;20459;-66
2022/11/27 06:33:36;;;;;;;4.10;2.00;;;0.20;98.00;;;;;;5013391;28;20454;-66
2022/11/27 06:36:03;;;;;;;2.17;1.80;;;0.30;98.00;;;;;;5013409;28;20451;-65
2022/11/27 06:38:32;;;;;;;1.87;1.73;;;0.40;98.00;;;;;;4995865;28;20454;-66
2022/11/27 06:41:06;;;;;;;1.97;1.90;;;0.40;98.00;;;;;;5013418;28;20455;-66
2022/11/27 06:43:33;;;;;;;3.20;2.27;;;0.30;98.00;;;;;;5012923;28;20450;-66
2022/11/27 06:46:02;;;;;;;1.93;1.63;;;0.40;98.00;;;;;;5012969;28;20458;-66
2022/11/27 06:48:30;;;;;;;3.30;1.83;;;0.30;98.00;;;;;;5012729;28;20883;-66
2022/11/27 06:51:00;;;;;;;1.60;1.50;;;0.40;98.00;;;;;;5019285;28;20473;-66
2022/11/27 06:53:27;;;;;;;3.20;2.03;;;0.30;98.00;;;;;;5031757;28;20577;-66
2022/11/27 06:55:54;;;;;;;6.50;2.20;;;0.30;98.00;;;;;;5031924;28;20500;-66
2022/11/27 06:58:22;;;;;;;2.57;1.80;;;0.30;98.00;;;;;;5031688;28;20451;-66
2022/11/27 07:00:49;;;;;;;4.60;2.10;;;0.40;98.00;;;;;;5014261;28;20461;-66
2022/11/27 07:03:17;;;;;;;2.60;2.40;;;0.50;98.00;;;;;;5031412;28;20468;-66
2022/11/27 07:05:45;;;;;;;2.40;2.20;;;0.60;98.00;;;;;;5031565;28;20810;-66
2022/11/27 07:08:13;;;;;;;3.20;2.30;;;0.70;98.00;;;;;;5031332;28;20458;-66
2022/11/27 07:10:40;;;;;;;2.30;2.20;;;0.90;98.00;;;;;;5031857;28;20507;-66
2022/11/27 07:13:07;;;;;;;2.20;2.10;;;1.20;98.00;;;;;;5030405;28;20486;-66
2022/11/27 07:15:34;;;;;;;2.50;1.83;;;1.20;98.00;;;;;;5014005;28;20466;-66
2022/11/27 07:18:02;;;;;;;2.20;1.70;;;0.80;98.00;;;;;;5031479;28;20628;-66
2022/11/27 07:20:29;;;;;;;5.90;3.20;;;0.70;98.00;;;;;;5031494;28;20489;-66
2022/11/27 07:22:57;;;;;;;2.33;1.83;;;0.60;98.00;;;;;;5031126;28;20472;-66
2022/11/27 07:25:27;;;;;;;4.60;2.50;;;0.70;98.00;;;;;;5031353;28;20464;-66
2022/11/27 07:27:55;;;;;;;3.30;2.27;;;0.80;98.00;;;;;;5031015;28;20469;-66
2022/11/27 07:30:22;;;;;;;7.33;2.57;;;0.80;98.00;;;;;;5031418;28;20835;-66
2022/11/27 07:32:51;;;;;;;2.23;2.03;;;0.70;98.00;;;;;;5031372;28;20612;-66
2022/11/27 07:35:18;;;;;;;3.80;2.40;;;0.70;98.00;;;;;;5013812;28;20883;-66
2022/11/27 07:37:47;;;;;;;1.50;1.47;;;0.70;98.00;;;;;;5031277;28;20481;-66
2022/11/27 07:40:17;;;;;;;3.97;1.90;;;0.70;98.00;;;;;;5031319;28;20453;-66
2022/11/27 07:42:44;;;;;;;4.33;2.40;;;0.80;98.00;;;;;;5031200;28;20458;-66
2022/11/27 07:45:12;;;;;;;2.13;1.87;;;0.80;98.00;;;;;;5031006;28;20826;-66
2022/11/27 07:47:39;;;;;;;3.27;2.30;;;0.80;98.00;;;;;;5031222;28;20474;-66
2022/11/27 07:50:08;;;;;;;2.80;2.17;;;0.90;98.00;;;;;;5013413;28;20459;-66
2022/11/27 07:52:35;;;;;;;4.07;1.87;;;1.10;98.00;;;;;;5011402;28;21092;-66
2022/11/27 07:55:03;;;;;;;2.63;2.00;;;1.20;98.00;;;;;;5011248;28;20462;-66
2022/11/27 07:57:32;;;;;;;5.80;3.00;;;1.20;98.00;;;;;;5011243;28;20459;-66
2022/11/27 07:59:59;;;;;;;1.77;1.33;;;1.30;98.00;;;;;;5011194;28;20458;-66
2022/11/27 08:02:26;;;;;;;2.03;1.90;;;1.40;98.00;;;;;;5010767;28;20808;-66
2022/11/27 08:04:53;;;;;;;3.20;1.93;;;1.40;98.00;;;;;;5010917;28;20459;-66
2022/11/27 08:07:20;;;;;;;6.43;2.30;;;1.50;98.00;;;;;;5011075;28;20499;-63
2022/11/27 08:09:47;;;;;;;2.30;1.80;;;1.60;98.00;;;;;;5011380;28;20999;-63
2022/11/27 08:12:15;;;;;;;3.53;2.13;;;1.50;98.00;;;;;;5011024;28;20857;-63
2022/11/27 08:14:44;;;;;;;5.23;2.37;;;1.60;98.00;;;;;;5011092;28;20455;-63
2022/11/27 08:17:13;;;;;;;2.40;1.60;;;1.70;98.00;;;;;;5011020;28;20467;-63
2022/11/27 08:19:40;;;;;;;3.00;2.10;;;1.80;98.00;;;;;;5010783;28;20517;-63
2022/11/27 08:22:12;;;;;;;4.43;2.60;;;1.90;98.00;;;;;;5010989;28;20460;-63
2022/11/27 08:24:41;;;;;;;10.90;2.20;;;2.00;98.00;;;;;;5014001;28;20455;-63
2022/11/27 08:27:08;;;;;;;3.43;2.50;;;1.90;98.00;;;;;;5014977;28;20878;-63
2022/11/27 08:29:36;;;;;;;3.70;2.30;;;1.90;98.00;;;;;;4997560;28;20467;-63
2022/11/27 08:32:05;;;;;;;3.60;2.53;;;1.80;98.00;;;;;;5014561;28;20494;-63
2022/11/27 08:34:32;;;;;;;1.80;1.43;;;1.90;98.00;;;;;;5014049;28;20468;-63
2022/11/27 08:36:59;;;;;;;3.90;2.60;;;1.90;98.00;;;;;;5014485;28;20651;-63
2022/11/27 08:39:27;;;;;;;3.77;2.50;;;1.90;98.00;;;;;;4997185;28;20483;-63
2022/11/27 08:41:54;;;;;;;5.83;4.27;;;1.90;98.00;;;;;;5014420;28;20958;-63
2022/11/27 08:44:21;;;;;;;8.30;3.67;;;1.90;98.00;;;;;;5014306;28;20468;-63
2022/11/27 08:46:48;;;;;;;2.37;1.73;;;1.80;98.00;;;;;;5014575;28;20832;-63
2022/11/27 08:49:17;;;;;;;2.77;2.10;;;1.80;98.00;;;;;;5014219;28;20470;-63
2022/11/27 08:51:44;;;;;;;3.57;2.50;;;1.70;98.00;;;;;;5014224;28;20518;-63
2022/11/27 08:54:12;;;;;;;2.63;2.13;;;1.70;98.00;;;;;;5014047;28;20455;-63
2022/11/27 08:56:39;;;;;;;3.03;2.37;;;1.80;98.00;;;;;;5014253;28;20458;-63
2022/11/27 08:59:06;;;;;;;4.37;2.67;;;1.90;98.00;;;;;;5013990;28;20480;-63
2022/11/27 09:01:34;;;;;;;5.83;3.13;;;2.00;98.00;;;;;;5014114;28;20454;-63
2022/11/27 09:04:01;;;;;;;4.67;2.50;;;2.00;98.00;;;;;;5016357;28;20443;-64
2022/11/27 09:06:33;;;;;;;3.57;2.13;;;2.30;98.00;;;;;;5004494;28;20942;-64
2022/11/27 09:09:02;;;;;;;4.30;3.40;;;2.30;98.00;;;;;;5012093;28;20460;-63
2022/11/27 09:11:31;;;;;;;6.00;2.43;;;2.30;98.00;;;;;;5012344;28;20846;-64
2022/11/27 09:13:59;;;;;;;4.47;3.27;;;2.30;98.00;;;;;;5011997;28;20503;-62
2022/11/27 09:16:26;;;;;;;6.40;3.87;;;2.60;98.00;;;;;;5012236;28;21017;-64
2022/11/27 09:18:54;;;;;;;5.20;3.03;;;3.10;98.00;;;;;;5012352;28;20463;-64
2022/11/27 09:21:23;;;;;;;4.00;2.63;;;3.10;98.00;;;;;;5011737;28;20566;-64
2022/11/27 09:23:55;;;;;;;5.03;3.27;;;3.00;98.00;;;;;;5012286;28;20595;-65
2022/11/27 09:26:24;;;;;;;6.93;2.83;;;3.00;98.00;;;;;;5011557;28;21008;-64
2022/11/27 09:28:52;;;;;;;8.70;3.80;;;3.10;98.00;;;;;;5014346;28;20459;-63
2022/11/27 09:31:20;;;;;;;5.33;2.93;;;3.00;98.00;;;;;;5013624;28;20455;-63
2022/11/27 09:33:47;;;;;;;4.70;3.00;;;2.90;98.00;;;;;;5012969;28;20522;-63
2022/11/27 09:36:16;;;;;;;4.00;3.23;;;2.90;98.00;;;;;;4996145;28;20448;-63
2022/11/27 09:38:47;;;;;;;8.20;3.53;;;3.10;98.00;;;;;;5014166;28;20510;-63
2022/11/27 09:41:28;;;;;;;4.70;3.00;;;3.20;98.00;;;;;;4997334;28;20459;-63
2022/11/27 09:44:03;;;;;;;3.60;2.70;;;3.10;98.00;;;;;;5013954;28;20958;-63
2022/11/27 09:46:34;;;;;;;17.73;3.43;;;3.20;98.00;;;;;;5013975;28;20484;-63
2022/11/27 09:49:05;;;;;;;5.77;2.40;;;3.20;98.00;;;;;;5013910;28;20946;-63
2022/11/27 09:51:37;;;;;;;4.97;3.03;;;3.30;98.00;;;;;;5014075;28;20451;-63
2022/11/27 09:54:11;;;;;;;3.80;2.87;;;3.50;98.00;;;;;;5013534;28;20491;-63
2022/11/27 09:56:43;;;;;;;6.10;2.70;;;3.50;98.00;;;;;;5013996;28;20457;-63
2022/11/27 09:59:16;;;;;;;4.50;3.13;;;3.60;98.00;;;;;;5013555;28;20458;-63
2022/11/27 10:01:44;;;;;;;4.83;2.57;;;3.60;98.00;;;;;;5015878;28;20465;-63
2022/11/27 10:04:12;;;;;;;6.10;3.10;;;3.70;98.00;;;;;;5012882;28;20864;-63
2022/11/27 10:07:04;;;;;;;7.73;3.27;;;3.70;98.00;;;;;;5012550;28;20517;-63
2022/11/27 10:09:41;;;;;;;6.13;3.67;;;3.70;98.00;;;;;;5012897;28;20464;-62
2022/11/27 10:12:20;;;;;;;5.60;3.60;;;3.80;98.00;;;;;;5018197;28;20466;-65
2022/11/27 10:15:02;;;;;;;5.23;3.30;;;3.80;98.00;;;;;;5032118;28;20456;-62
2022/11/27 10:17:34;;;;;;;3.40;2.30;;;3.90;98.00;;;;;;5032712;28;20961;-62
2022/11/27 10:20:15;;;;;;;4.03;2.83;;;4.00;98.00;;;;;;5031861;28;20474;-64
2022/11/27 10:22:50;;;;;;;3.73;2.80;;;4.20;98.00;;;;;;5032611;28;20466;-64
2022/11/27 10:25:21;;;;;;;5.77;3.23;;;4.40;98.00;;;;;;5033335;28;20876;-64
2022/11/27 10:28:02;;;;;;;4.17;2.77;;;4.50;98.00;;;;;;5032740;28;20489;-64
2022/11/27 10:30:36;;;;;;;6.37;4.07;;;4.90;98.00;;;;;;5033368;28;20464;-64
2022/11/27 10:33:07;;;;;;;6.50;4.10;;;4.90;98.00;;;;;;5032239;28;20488;-64
2022/11/27 10:35:35;;;;;;;7.23;4.00;;;5.00;98.00;;;;;;5032341;28;20454;-64
2022/11/27 10:38:06;;;;;;;5.87;2.93;;;5.20;98.00;;;;;;5014812;28;20537;-64
2022/11/27 10:40:39;;;;;;;6.10;3.40;;;5.30;98.00;;;;;;5032051;28;20476;-64
2022/11/27 10:43:18;;;;;;;5.37;3.60;;;5.40;98.00;;;;;;5031939;28;20464;-64
2022/11/27 10:45:49;;;;;;;4.40;3.00;;;5.50;98.00;;;;;;5032031;28;20850;-64
2022/11/27 10:48:16;;;;;;;6.90;3.70;;;5.60;98.00;;;;;;5031766;28;20828;-64
2022/11/27 10:50:47;;;;;;;7.23;3.27;;;5.80;98.00;;;;;;5010115;28;20966;-64
2022/11/27 10:53:23;;;;;;;10.73;4.17;;;5.90;98.00;;;;;;5031610;28;20863;-64
2022/11/27 10:56:24;;;;;;;5.43;3.90;;;6.10;98.00;;;;;;5032180;28;20458;-63
2022/11/27 10:58:57;;;;;;;7.73;4.20;;;6.30;98.00;;;;;;5019165;28;20475;-63
2022/11/27 11:01:27;;;;;;;4.57;2.83;;;6.50;98.00;;;;;;5013983;28;20977;-63
2022/11/27 11:04:05;;;;;;;4.77;2.67;;;6.70;98.00;;;;;;5031905;28;21046;-63
2022/11/27 11:06:38;;;;;;;4.50;3.17;;;7.00;98.00;;;;;;5031730;28;20509;-63
2022/11/27 11:09:12;;;;;;;7.00;3.40;;;7.20;98.00;;;;;;5031729;28;20544;-63
2022/11/27 11:11:39;;;;;;;6.90;3.77;;;7.40;98.00;;;;;;5031490;28;20825;-63
2022/11/27 11:14:18;;;;;;;6.90;2.93;;;7.60;98.00;;;;;;5026077;28;20490;-64
2022/11/27 11:19:28;;;;;;;7.23;2.70;;;8.10;98.00;;;;;;5144814;22;20860;-63
2022/11/27 11:21:56;;;;;;;4.60;3.17;;;8.30;98.00;;;;;;5051215;28;20470;-63
2022/11/27 11:24:27;;;;;;;4.00;2.53;;;8.40;98.00;;;;;;5051054;28;20468;-63
2022/11/27 11:26:57;;;;;;;5.60;2.47;;;8.60;98.00;;;;;;5051245;28;20455;-63
2022/11/27 11:29:36;;;;;;;5.17;3.10;;;8.80;98.00;;;;;;5051177;28;20475;-62
2022/11/27 11:32:09;;;;;;;5.13;3.63;;;9.10;98.00;;;;;;5051088;28;20867;-63
2022/11/27 11:34:40;;;;;;;4.30;2.57;;;9.10;98.00;;;;;;5051495;28;20485;-63
2022/11/27 11:37:18;;;;;;;2.47;1.73;;;9.30;98.00;;;;;;5051109;28;20491;-63
2022/11/27 11:39:48;;;;;;;4.03;1.77;;;9.40;98.00;;;;;;5050974;28;20457;-63
2022/11/27 11:42:20;;;;;;;3.30;1.67;;;9.60;98.00;;;;;;5051035;28;20483;-63
2022/11/27 11:44:53;;;;;;;2.07;1.50;;;9.80;98.00;;;;;;5051261;28;20468;-63
2022/11/27 11:47:23;;;;;;;1.73;1.27;;;10.00;98.00;;;;;;5050933;28;20536;-63
2022/11/27 11:49:52;;;;;;;3.20;1.60;;;10.30;98.00;;;;;;5050852;28;20906;-63
2022/11/27 11:52:47;;;;;;;2.00;1.63;;;10.40;98.00;;;;;;5033250;28;20465;-63
2022/11/27 11:55:20;;;;;;;3.27;2.03;;;10.60;98.00;;;;;;5050655;28;20944;-63
2022/11/27 11:58:10;;;;;;;2.80;1.80;;;10.60;98.00;;;;;;5033406;28;20543;-63
2022/11/27 12:00:46;;;;;;;2.50;1.63;;;10.90;98.00;;;;;;5055059;28;20467;-63
2022/11/27 12:03:31;;;;;;;1.60;1.53;;;11.10;98.00;;;;;;5037796;28;20472;-63
2022/11/27 12:06:17;;;;;;;1.60;1.60;;;11.30;98.00;;;;;;5054994;28;20469;-63
2022/11/27 12:09:00;;;;;;;2.70;1.60;;;11.60;98.00;;;;;;5054966;28;20511;-63
2022/11/27 12:11:37;;;;;;;2.07;1.67;;;11.70;98.00;;;;;;5055068;28;20531;-63
2022/11/27 12:14:16;;;;;;;2.70;1.80;;;12.00;98.00;;;;;;5054754;28;20486;-63
2022/11/27 12:17:00;;;;;;;3.20;1.70;;;12.30;98.00;;;;;;5054649;28;20466;-63
2022/11/27 12:19:53;;;;;;;3.37;2.00;;;12.60;98.00;;;;;;5054614;28;20468;-63
2022/11/27 12:22:36;;;;;;;3.83;1.90;;;12.90;98.00;;;;;;5054531;28;20730;-63
2022/11/27 12:25:17;;;;;;;1.97;1.60;;;13.20;98.00;;;;;;5054670;28;20543;-63
2022/11/27 12:27:57;;;;;;;1.50;1.40;;;13.40;98.00;;;;;;5036793;28;20861;-63
2022/11/27 12:30:29;;;;;;;4.23;2.03;;;13.70;98.00;;;;;;5054342;28;20525;-63
2022/11/27 12:33:18;;;;;;;3.83;1.97;;;13.90;98.00;;;;;;5036700;28;20456;-63
2022/11/27 12:35:52;;;;;;;2.30;1.83;;;14.10;97.50;;;;;;5054361;28;20551;-63
2022/11/27 12:38:54;;;;;;;3.10;1.90;;;14.40;98.00;;;;;;5054224;28;20454;-63
2022/11/27 12:41:44;;;;;;;5.13;2.20;;;14.60;97.20;;;;;;5054120;28;20455;-63
2022/11/27 12:44:22;;;;;;;3.00;2.03;;;14.80;95.40;;;;;;5050959;28;20946;-63
2022/11/27 12:46:58;;;;;;;6.23;3.43;;;15.00;94.40;;;;;;5046258;28;20467;-63
2022/11/27 12:49:34;;;;;;;3.20;2.13;;;14.70;94.40;;;;;;5051836;28;20511;-63
2022/11/27 12:52:09;;;;;;;3.50;2.10;;;14.20;96.50;;;;;;5054993;28;20458;-63
2022/11/27 12:54:44;;;;;;;2.40;1.60;;;14.10;96.10;;;;;;5055060;28;20833;-63
2022/11/27 12:57:16;;;;;;;1.80;1.70;;;14.30;94.70;;;;;;5054593;28;20873;-63
2022/11/27 12:59:48;;;;;;;4.70;2.13;;;14.40;94.30;;;;;;5054818;28;20542;-64
2022/11/27 13:02:26;;;;;;;5.43;2.60;;;14.30;93.70;;;;;;5054380;28;20461;-63
2022/11/27 13:05:00;;;;;;;5.13;2.50;;;14.50;94.20;;;;;;5054464;28;20505;-63
2022/11/27 13:07:37;;;;;;;7.60;3.50;;;14.50;93.10;;;;;;5036686;28;20964;-63
2022/11/27 13:10:15;;;;;;;2.70;1.90;;;14.30;94.90;;;;;;5053118;28;20486;-63
2022/11/27 13:12:46;;;;;;;5.77;2.10;;;13.80;95.60;;;;;;5054472;28;20456;-63
2022/11/27 13:15:23;;;;;;;7.40;3.10;;;13.50;94.60;;;;;;5054151;28;20485;-63
2022/11/27 13:17:55;;;;;;;6.60;2.93;;;13.00;95.30;;;;;;5054021;28;20573;-63